createdAt,value
2022-11-05T00:00:33.682Z,8.00
2022-11-05T00:03:19.898Z,6.73
2022-11-05T00:06:10.425Z,8.63
2022-11-05T00:08:56.973Z,8.67
2022-11-05T00:11:44.695Z,6.33
2022-11-05T00:14:30.751Z,7.10
2022-11-05T00:16:58.433Z,6.57
2022-11-05T00:19:25.790Z,6.67
2022-11-05T00:22:11.740Z,6.27
2022-11-05T00:24:57.774Z,5.87
2022-11-05T00:27:27.620Z,6.13
2022-11-05T00:29:55.043Z,6.13
2022-11-05T00:32:23.738Z,5.80
2022-11-05T00:34:51.158Z,6.00
2022-11-05T00:37:18.832Z,5.97
2022-11-05T00:39:49.296Z,5.43
2022-11-05T00:42:35.216Z,8.13
2022-11-05T00:45:03.033Z,7.27
2022-11-05T00:47:52.851Z,7.50
2022-11-05T00:50:21.724Z,6.93
2022-11-05T00:52:57.569Z,6.37
2022-11-05T00:55:35.553Z,6.00
2022-11-05T00:58:04.909Z,5.97
2022-11-05T01:00:34.993Z,6.90
2022-11-05T01:03:07.735Z,6.33
2022-11-05T01:05:42.987Z,6.87
2022-11-05T01:08:11.436Z,6.10
2022-11-05T01:10:44.548Z,6.50
2022-11-05T01:13:13.589Z,6.80
2022-11-05T01:15:42.083Z,5.40
2022-11-05T01:18:09.870Z,6.07
2022-11-05T01:20:37.378Z,5.87
2022-11-05T01:23:08.947Z,5.67
2022-11-05T01:25:44.104Z,5.90
2022-11-05T01:28:11.561Z,5.20
2022-11-05T01:30:39.456Z,5.60
2022-11-05T01:33:08.037Z,5.80
2022-11-05T01:35:35.664Z,5.50
2022-11-05T01:38:03.000Z,6.40
2022-11-05T01:40:30.813Z,5.50
2022-11-05T01:42:58.139Z,6.30
2022-11-05T01:45:27.679Z,6.17
2022-11-05T01:48:08.406Z,5.90
2022-11-05T01:50:55.191Z,6.13
2022-11-05T01:53:29.346Z,6.50
2022-11-05T01:56:20.818Z,7.30
2022-11-05T01:59:06.452Z,7.13
2022-11-05T02:01:34.087Z,7.50
2022-11-05T02:04:10.128Z,7.30
2022-11-05T02:06:46.208Z,7.10
2022-11-05T02:09:28.623Z,6.70
2022-11-05T02:11:56.004Z,7.20
2022-11-05T02:14:23.416Z,7.70
2022-11-05T02:16:58.264Z,7.20
2022-11-05T02:19:51.264Z,6.90
2022-11-05T02:22:33.866Z,7.73
2022-11-05T02:25:28.065Z,8.40
2022-11-05T02:28:10.704Z,8.00
2022-11-05T02:31:17.522Z,8.90
2022-11-05T02:33:56.941Z,8.07
2022-11-05T02:36:40.247Z,7.10
2022-11-05T02:39:26.743Z,8.57
2022-11-05T02:42:05.173Z,9.13
2022-11-05T02:45:12.773Z,10.10
2022-11-05T02:47:57.423Z,9.63
2022-11-05T02:50:35.082Z,11.13
2022-11-05T02:53:14.590Z,9.97
2022-11-05T02:55:49.672Z,10.87
2022-11-05T02:58:17.021Z,10.37
2022-11-05T03:00:54.518Z,9.13
2022-11-05T03:03:45.790Z,11.37
2022-11-05T03:06:15.834Z,9.90
2022-11-05T03:09:08.692Z,11.20
2022-11-05T03:11:56.773Z,9.93
2022-11-05T03:14:39.171Z,9.97
2022-11-05T03:17:16.400Z,11.07
2022-11-05T03:19:53.680Z,10.10
2022-11-05T03:22:28.619Z,11.20
2022-11-05T03:25:01.611Z,9.83
2022-11-05T03:27:35.660Z,9.30
2022-11-05T03:30:09.133Z,11.03
2022-11-05T03:32:40.241Z,9.33
2022-11-05T03:35:20.615Z,9.73
2022-11-05T03:37:51.351Z,9.40
2022-11-05T03:40:21.401Z,10.30
2022-11-05T03:42:53.788Z,10.63
2022-11-05T03:45:26.371Z,10.27
2022-11-05T03:47:57.596Z,9.70
2022-11-05T03:50:41.457Z,10.30
2022-11-05T03:53:17.788Z,10.97
2022-11-05T03:55:59.874Z,10.77
2022-11-05T03:58:28.736Z,12.17
2022-11-05T04:00:58.903Z,9.77
2022-11-05T04:03:26.664Z,10.87
2022-11-05T04:06:15.969Z,11.17
2022-11-05T04:09:02.222Z,10.73
2022-11-05T04:11:49.354Z,11.27
2022-11-05T04:14:16.686Z,11.93
2022-11-05T04:17:02.491Z,11.80
2022-11-05T04:19:49.324Z,13.43
2022-11-05T04:22:35.580Z,12.47
2022-11-05T04:25:03.332Z,14.13
2022-11-05T04:27:30.670Z,13.17
2022-11-05T04:30:17.010Z,14.77
2022-11-05T04:33:14.110Z,13.73
2022-11-05T04:35:44.563Z,13.67
2022-11-05T04:38:17.466Z,14.97
2022-11-05T04:40:46.142Z,14.67
2022-11-05T04:43:16.656Z,14.07
2022-11-05T04:45:44.923Z,14.20
2022-11-05T04:48:16.087Z,13.63
2022-11-05T04:50:43.494Z,13.83
2022-11-05T04:53:11.077Z,12.73
2022-11-05T04:55:38.679Z,12.70
2022-11-05T04:58:06.176Z,13.10
2022-11-05T05:00:34.192Z,12.93
2022-11-05T05:03:01.567Z,12.93
2022-11-05T05:05:30.482Z,12.87
2022-11-05T05:08:02.296Z,12.70
2022-11-05T05:10:29.695Z,13.53
2022-11-05T05:12:57.103Z,13.30
2022-11-05T05:15:24.767Z,13.63
2022-11-05T05:17:52.991Z,13.57
2022-11-05T05:20:39.480Z,11.73
2022-11-05T05:23:07.052Z,12.40
2022-11-05T05:25:34.537Z,14.37
2022-11-05T05:28:02.170Z,15.80
2022-11-05T05:30:29.549Z,15.03
2022-11-05T05:32:56.955Z,14.70
2022-11-05T05:35:24.333Z,14.00
2022-11-05T05:37:56.377Z,15.13
2022-11-05T05:40:24.384Z,14.90
2022-11-05T05:42:55.684Z,14.80
2022-11-05T05:45:23.087Z,13.07
2022-11-05T05:47:50.525Z,14.10
2022-11-05T05:50:17.831Z,11.87
2022-11-05T05:52:53.456Z,11.43
2022-11-05T05:55:20.963Z,10.27
2022-11-05T05:57:48.308Z,10.20
2022-11-05T06:00:15.870Z,10.63
2022-11-05T06:02:43.318Z,10.00
2022-11-05T06:05:11.107Z,10.20
2022-11-05T06:07:38.467Z,10.00
2022-11-05T06:10:06.363Z,11.30
2022-11-05T06:12:33.847Z,12.40
2022-11-05T06:15:01.157Z,9.87
2022-11-05T06:17:28.808Z,11.67
2022-11-05T06:19:56.082Z,10.47
2022-11-05T06:22:23.460Z,10.37
2022-11-05T06:24:50.755Z,10.60
2022-11-05T06:27:18.350Z,13.20
2022-11-05T06:29:45.824Z,14.47
2022-11-05T06:32:13.145Z,13.07
2022-11-05T06:34:40.657Z,11.93
2022-11-05T06:37:07.953Z,13.17
2022-11-05T06:39:35.620Z,12.53
2022-11-05T06:42:19.221Z,13.53
2022-11-05T06:44:47.071Z,11.93
2022-11-05T06:47:14.415Z,12.13
2022-11-05T06:49:41.739Z,12.73
2022-11-05T06:52:09.511Z,13.47
2022-11-05T06:54:36.901Z,13.57
2022-11-05T06:57:04.430Z,12.13
2022-11-05T06:59:31.923Z,13.80
2022-11-05T07:01:59.311Z,14.03
2022-11-05T07:04:27.200Z,13.23
2022-11-05T07:06:54.536Z,14.20
2022-11-05T07:09:22.031Z,15.03
2022-11-05T07:11:49.307Z,14.03
2022-11-05T07:14:16.746Z,12.93
2022-11-05T07:16:47.091Z,13.63
2022-11-05T07:19:14.662Z,13.10
2022-11-05T07:21:42.019Z,14.33
2022-11-05T07:24:09.394Z,13.10
2022-11-05T07:26:36.751Z,14.23
2022-11-05T07:29:04.122Z,16.07
2022-11-05T07:31:31.584Z,14.70
2022-11-05T07:34:01.549Z,14.60
2022-11-05T07:36:29.012Z,14.80
2022-11-05T07:39:00.335Z,13.63
2022-11-05T07:41:29.284Z,13.47
2022-11-05T07:43:56.718Z,13.50
2022-11-05T07:46:25.457Z,15.60
2022-11-05T07:48:54.282Z,13.60
2022-11-05T07:51:22.164Z,13.57
2022-11-05T07:53:49.616Z,13.93
2022-11-05T07:56:17.516Z,15.13
2022-11-05T07:58:45.671Z,15.40
2022-11-05T08:07:06.219Z,14.03
2022-11-05T08:09:34.048Z,14.63
2022-11-05T08:12:03.559Z,14.77
2022-11-05T08:14:31.731Z,13.93
2022-11-05T08:16:59.656Z,15.20
2022-11-05T08:19:26.894Z,14.67
2022-11-05T08:21:54.224Z,15.00
2022-11-05T08:24:21.594Z,16.97
2022-11-05T08:26:48.957Z,15.90
2022-11-05T08:29:41.887Z,15.40
2022-11-05T08:32:10.553Z,14.83
2022-11-05T08:34:37.980Z,14.90
2022-11-05T08:37:05.456Z,14.03
2022-11-05T08:39:41.724Z,14.30
2022-11-05T08:42:09.061Z,14.80
2022-11-05T08:44:36.362Z,13.40
2022-11-05T08:47:03.755Z,12.70
2022-11-05T08:49:31.349Z,13.17
2022-11-05T08:55:12.037Z,12.57
2022-11-05T09:04:08.987Z,13.57
2022-11-05T09:18:53.247Z,12.80
2022-11-05T09:27:40.636Z,12.97
2022-11-05T09:30:09.378Z,12.30
2022-11-05T09:32:46.767Z,12.83
2022-11-05T09:35:18.519Z,12.73
2022-11-05T09:37:48.636Z,10.87
2022-11-05T09:40:19.427Z,11.43
2022-11-05T09:42:52.603Z,10.47
2022-11-05T09:45:23.648Z,10.80
2022-11-05T09:54:13.068Z,10.00
2022-11-05T10:02:47.670Z,10.50
2022-11-05T10:05:15.835Z,9.40
2022-11-05T10:07:55.760Z,9.60
2022-11-05T10:10:41.642Z,8.60
2022-11-05T10:13:29.616Z,9.27
2022-11-05T10:16:06.777Z,8.73
2022-11-05T10:18:42.933Z,8.60
2022-11-05T10:21:27.753Z,8.00
2022-11-05T10:24:14.880Z,9.60
2022-11-05T10:26:43.399Z,7.50
2022-11-05T10:29:15.264Z,8.43
2022-11-05T10:31:43.498Z,8.27
2022-11-05T10:34:13.690Z,6.90
2022-11-05T10:36:41.329Z,7.93
2022-11-05T10:39:17.642Z,6.47
2022-11-05T10:42:10.426Z,6.87
2022-11-05T10:44:45.301Z,6.43
2022-11-05T10:47:25.093Z,5.93
2022-11-05T10:50:00.004Z,6.00
2022-11-05T10:52:36.608Z,5.80
2022-11-05T10:55:25.309Z,6.60
2022-11-05T11:20:46.656Z,6.10
2022-11-05T11:29:52.472Z,6.50
2022-11-05T11:35:24.727Z,6.83
2022-11-05T11:38:31.788Z,6.53
2022-11-05T11:47:04.738Z,6.80
2022-11-05T12:20:58.498Z,7.27
2022-11-05T12:27:34.701Z,6.80
2022-11-05T12:30:15.119Z,5.77
2022-11-05T12:36:57.652Z,7.70
2022-11-05T12:45:47.466Z,7.83
2022-11-05T12:48:41.202Z,7.33
2022-11-05T12:51:39.356Z,7.77
2022-11-05T12:54:44.375Z,7.97
2022-11-05T12:57:13.978Z,8.37
2022-11-05T13:03:44.832Z,7.13
2022-11-05T13:06:26.074Z,7.33
2022-11-05T13:09:02.254Z,7.20
2022-11-05T13:12:05.541Z,6.80
2022-11-05T13:18:07.196Z,8.10
2022-11-05T13:20:42.004Z,7.30
2022-11-05T13:23:12.847Z,7.10
2022-11-05T13:25:47.914Z,7.33
2022-11-05T13:31:40.113Z,6.93
2022-11-05T13:34:15.373Z,6.20
2022-11-05T13:37:23.857Z,7.30
2022-11-05T13:39:59.336Z,5.97
2022-11-05T13:42:32.647Z,6.70
2022-11-05T13:45:41.262Z,5.90
2022-11-05T13:48:29.985Z,6.07
2022-11-05T13:51:09.684Z,6.23
2022-11-05T13:54:02.963Z,7.00
2022-11-05T13:56:51.785Z,7.23
2022-11-05T13:59:42.896Z,6.10
2022-11-05T14:02:27.952Z,5.80
2022-11-05T14:05:01.741Z,4.87
2022-11-05T14:07:44.135Z,4.67
2022-11-05T14:10:39.805Z,5.37
2022-11-05T14:13:23.638Z,6.07
2022-11-05T14:16:09.082Z,5.23
2022-11-05T14:18:46.474Z,6.03
2022-11-05T14:21:26.079Z,6.23
2022-11-05T14:23:55.918Z,5.57
2022-11-05T14:26:29.758Z,4.73
2022-11-05T14:29:03.513Z,5.10
2022-11-05T14:32:07.297Z,5.20
2022-11-05T14:34:53.572Z,4.60
2022-11-05T14:37:30.295Z,4.60
2022-11-05T14:40:21.852Z,4.87
2022-11-05T14:42:58.455Z,5.10
2022-11-05T14:46:00.894Z,6.10
2022-11-05T14:48:40.335Z,5.50
2022-11-05T14:51:44.241Z,5.10
2022-11-05T14:54:26.577Z,5.30
2022-11-05T14:56:59.533Z,5.03
2022-11-05T14:59:28.309Z,4.33
2022-11-05T15:02:11.587Z,5.70
2022-11-05T15:04:45.676Z,5.50
2022-11-05T15:07:22.281Z,5.47
2022-11-05T15:09:55.879Z,5.47
2022-11-05T15:12:35.756Z,5.20
2022-11-05T15:15:22.281Z,5.70
2022-11-05T15:18:04.405Z,4.90
2022-11-05T15:20:40.325Z,4.83
2022-11-05T15:23:14.994Z,4.03
2022-11-05T15:26:00.063Z,4.40
2022-11-05T15:28:34.459Z,4.37
2022-11-05T15:31:14.272Z,4.13
2022-11-05T15:33:42.905Z,4.50
2022-11-05T15:36:29.191Z,5.23
2022-11-05T15:39:27.370Z,4.77
2022-11-05T15:41:46.553Z,4.83
2022-11-05T15:44:26.304Z,4.47
2022-11-05T15:47:25.246Z,4.90
2022-11-05T15:50:08.662Z,4.97
2022-11-05T15:52:48.184Z,5.43
2022-11-05T15:55:22.231Z,4.93
2022-11-05T15:57:51.520Z,5.40
2022-11-05T16:00:25.292Z,6.00
2022-11-05T16:03:04.914Z,5.63
2022-11-05T16:05:42.999Z,4.77
2022-11-05T16:08:30.413Z,5.27
2022-11-05T16:11:14.819Z,4.80
2022-11-05T16:13:42.298Z,4.40
2022-11-05T16:16:15.802Z,4.37
2022-11-05T16:18:44.863Z,5.00
2022-11-05T16:21:19.505Z,5.13
2022-11-05T16:23:54.319Z,5.63
2022-11-05T16:29:32.261Z,5.00
2022-11-05T16:32:02.802Z,5.30
2022-11-05T16:34:40.117Z,5.00
2022-11-05T16:37:11.848Z,5.27
2022-11-05T16:39:39.665Z,5.00
2022-11-05T16:42:23.650Z,5.83
2022-11-05T16:44:52.744Z,5.50
2022-11-05T16:47:21.387Z,4.67
2022-11-05T16:49:49.070Z,4.73
2022-11-05T16:52:16.803Z,4.90
2022-11-05T16:54:44.350Z,5.13
2022-11-05T16:57:32.443Z,5.20
2022-11-05T17:00:00.766Z,5.30
2022-11-05T17:02:28.490Z,5.67
2022-11-05T17:04:56.251Z,5.57
2022-11-05T17:07:23.853Z,5.97
2022-11-05T17:09:51.376Z,6.13
2022-11-05T17:12:18.742Z,6.40
2022-11-05T17:14:46.050Z,6.80
2022-11-05T17:17:13.363Z,6.33
2022-11-05T17:19:42.582Z,7.47
2022-11-05T17:22:10.014Z,6.70
2022-11-05T17:24:38.800Z,7.10
2022-11-05T17:27:06.420Z,7.23
2022-11-05T17:29:33.881Z,7.60
2022-11-05T17:32:01.248Z,7.37
2022-11-05T17:34:28.707Z,8.13
2022-11-05T17:36:56.083Z,8.63
2022-11-05T17:39:28.715Z,7.67
2022-11-05T17:41:58.657Z,7.97
2022-11-05T17:44:26.440Z,8.90
2022-11-05T17:46:53.967Z,7.67
2022-11-05T17:49:21.672Z,8.97
2022-11-05T17:52:10.439Z,9.30
2022-11-05T17:54:37.813Z,9.17
2022-11-05T17:57:06.116Z,10.33
2022-11-05T17:59:33.507Z,10.70
2022-11-05T18:02:01.003Z,10.07
2022-11-05T18:04:28.487Z,11.63
2022-11-05T18:06:55.984Z,10.93
2022-11-05T18:09:23.305Z,10.90
2022-11-05T18:11:50.601Z,9.93
2022-11-05T18:14:23.747Z,11.10
2022-11-05T18:16:53.887Z,11.83
2022-11-05T18:19:21.276Z,11.93
2022-11-05T18:21:48.656Z,11.53
2022-11-05T18:24:16.078Z,10.90
2022-11-05T18:26:43.675Z,12.13
2022-11-05T18:29:10.956Z,10.63
2022-11-05T18:31:38.573Z,10.87
2022-11-05T18:34:10.328Z,10.60
2022-11-05T18:36:38.068Z,11.40
2022-11-05T18:39:07.102Z,10.90
2022-11-05T18:41:34.932Z,11.67
2022-11-05T18:44:03.119Z,11.67
2022-11-05T18:49:20.816Z,10.90
2022-11-05T18:51:48.520Z,11.73
2022-11-05T18:54:15.832Z,11.47
2022-11-05T18:56:45.497Z,11.00
2022-11-05T18:59:35.815Z,10.03
2022-11-05T19:02:03.560Z,10.77
2022-11-05T19:04:31.281Z,11.53
2022-11-05T19:07:03.361Z,11.40
2022-11-05T19:09:33.804Z,9.47
2022-11-05T19:12:02.546Z,10.30
2022-11-05T19:14:32.662Z,9.97
2022-11-05T19:17:01.308Z,10.13
2022-11-05T19:19:29.460Z,10.77
2022-11-05T19:21:57.328Z,11.53
2022-11-05T19:24:24.796Z,11.10
2022-11-05T19:26:52.123Z,10.70
2022-11-05T19:29:19.771Z,9.97
2022-11-05T19:31:47.129Z,11.13
2022-11-05T19:34:14.691Z,10.60
2022-11-05T19:36:42.841Z,10.67
2022-11-05T19:39:14.023Z,11.70
2022-11-05T19:41:41.444Z,10.60
2022-11-05T19:44:09.096Z,10.10
2022-11-05T19:46:36.487Z,10.77
2022-11-05T19:49:03.829Z,10.50
2022-11-05T19:51:32.602Z,12.00
2022-11-05T19:54:01.760Z,10.83
2022-11-05T19:56:33.063Z,10.60
2022-11-05T19:59:01.204Z,10.87
2022-11-05T20:01:30.455Z,11.17
2022-11-05T20:03:59.852Z,10.53
2022-11-05T20:06:33.368Z,11.47
2022-11-05T20:11:56.264Z,10.33
2022-11-05T20:14:25.241Z,10.53
2022-11-05T20:16:53.375Z,10.23
2022-11-05T20:19:23.082Z,10.80
2022-11-05T20:21:50.631Z,11.00
2022-11-05T20:24:24.688Z,10.80
2022-11-05T20:28:06.887Z,10.73
2022-11-05T20:30:35.651Z,10.47
2022-11-05T20:33:03.267Z,10.13
2022-11-05T20:35:30.674Z,10.90
2022-11-05T20:37:58.135Z,11.40
2022-11-05T20:40:25.533Z,9.77
2022-11-05T20:42:52.887Z,10.30
2022-11-05T20:45:20.572Z,9.80
2022-11-05T20:47:48.108Z,10.57
2022-11-05T20:50:15.953Z,10.03
2022-11-05T20:52:46.856Z,11.10
2022-11-05T20:55:14.631Z,10.77
2022-11-05T20:57:50.856Z,11.00
2022-11-05T21:00:18.602Z,11.57
2022-11-05T21:02:46.558Z,11.03
2022-11-05T21:11:27.033Z,10.70
2022-11-05T21:18:02.134Z,9.87
2022-11-05T21:20:56.953Z,9.80
